Time,TemperatureF,DewpointF,PressureIn,WindDirection,WindDirectionDegrees,WindSpeedMPH,WindSpeedGustMPH,Humidity,HourlyPrecipIn,Conditions,Clouds,dailyrainin,SoftwareType,DateUTC
2013-02-08 00:04:00,35.6,27.1,29.83,North,4,0.0,0.0,71,0.00,,,0.00,Weather View 32 v70,2013-02-08 08:04:00,
2013-02-08 00:14:00,35.6,27.1,29.83,North,4,0.0,4.0,71,0.00,,,0.00,Weather View 32 v70,2013-02-08 08:14:00,
2013-02-08 00:24:00,35.6,27.5,29.85,North,4,0.0,4.0,72,0.00,,,0.00,Weather View 32 v70,2013-02-08 08:24:00,
2013-02-08 00:34:00,35.6,27.8,29.85,North,4,0.0,4.0,73,0.00,,,0.00,Weather View 32 v70,2013-02-08 08:34:00,
2013-02-08 00:39:00,35.6,27.8,29.85,North,4,0.0,4.0,73,0.00,,,0.00,Weather View 32 v70,2013-02-08 08:39:00,
2013-02-08 00:49:00,35.4,28.0,29.85,North,4,0.0,4.0,74,0.00,,,0.00,Weather View 32 v70,2013-02-08 08:49:00,
2013-02-08 00:55:00,35.4,28.0,29.85,North,4,0.0,4.0,74,0.00,,,0.00,Weather View 32 v70,2013-02-08 08:55:00,
2013-02-08 01:04:00,35.4,28.0,29.85,North,4,0.0,4.0,74,0.00,,,0.00,Weather View 32 v70,2013-02-08 09:04:00,
2013-02-08 01:14:00,35.2,27.8,29.85,North,4,0.0,3.0,74,0.00,,,0.00,Weather View 32 v70,2013-02-08 09:14:00,
2013-02-08 01:24:00,35.4,28.3,29.85,North,4,0.0,3.0,75,0.00,,,0.00,Weather View 32 v70,2013-02-08 09:24:00,
2013-02-08 01:34:00,35.8,29.0,29.85,North,4,0.0,3.0,76,0.00,,,0.00,Weather View 32 v70,2013-02-08 09:34:00,
2013-02-08 01:44:00,36.0,29.1,29.85,North,4,0.0,0.0,76,0.00,,,0.00,Weather View 32 v70,2013-02-08 09:44:00,
2013-02-08 01:54:00,36.3,29.8,29.85,North,4,0.0,4.0,77,0.00,,,0.00,Weather View 32 v70,2013-02-08 09:54:00,
2013-02-08 01:59:00,36.7,30.1,29.85,North,4,3.0,4.0,77,0.00,,,0.00,Weather View 32 v70,2013-02-08 09:59:00,
2013-02-08 02:04:00,36.9,30.3,29.85,North,4,0.0,4.0,77,0.00,,,0.00,Weather View 32 v70,2013-02-08 10:04:00,
2013-02-08 02:09:00,36.7,30.1,29.85,North,4,2.0,4.0,77,0.00,,,0.00,Weather View 32 v70,2013-02-08 10:09:00,
2013-02-08 02:19:00,36.3,29.5,29.85,North,4,0.0,4.0,76,0.00,,,0.00,Weather View 32 v70,2013-02-08 10:19:00,
2013-02-08 02:24:00,36.1,29.3,29.85,North,4,0.0,4.0,76,0.00,,,0.00,Weather View 32 v70,2013-02-08 10:24:00,
2013-02-08 02:29:00,36.0,29.1,29.85,North,4,0.0,4.0,76,0.00,,,0.00,Weather View 32 v70,2013-02-08 10:29:00,
2013-02-08 02:39:00,35.8,29.0,29.85,North,4,0.0,4.0,76,0.00,,,0.00,Weather View 32 v70,2013-02-08 10:39:00,
2013-02-08 02:44:00,35.6,28.8,29.85,North,4,0.0,4.0,76,0.00,,,0.00,Weather View 32 v70,2013-02-08 10:44:00,
2013-02-08 02:54:00,35.1,28.3,29.85,North,4,0.0,4.0,76,0.00,,,0.00,Weather View 32 v70,2013-02-08 10:54:00,
2013-02-08 03:04:00,34.7,27.6,29.85,North,4,3.0,4.0,75,0.00,,,0.00,Weather View 32 v70,2013-02-08 11:04:00,
2013-02-08 03:14:00,34.7,27.6,29.85,North,4,0.0,3.0,75,0.00,,,0.00,Weather View 32 v70,2013-02-08 11:14:00,
2013-02-08 03:19:00,34.7,27.9,29.85,North,4,0.0,3.0,76,0.00,,,0.00,Weather View 32 v70,2013-02-08 11:19:00,
2013-02-08 03:29:00,34.9,28.1,29.85,North,4,3.0,3.0,76,0.00,,,0.00,Weather View 32 v70,2013-02-08 11:29:00,
2013-02-08 03:39:00,35.6,29.1,29.85,North,4,0.0,3.0,77,0.00,,,0.00,Weather View 32 v70,2013-02-08 11:39:00,
2013-02-08 03:49:00,35.8,29.3,29.85,North,4,2.0,3.0,77,0.00,,,0.00,Weather View 32 v70,2013-02-08 11:49:00,
2013-02-08 03:54:00,35.6,29.1,29.85,North,4,2.0,3.0,77,0.00,,,0.00,Weather View 32 v70,2013-02-08 11:54:00,
2013-02-08 03:59:00,35.4,28.9,29.85,North,4,0.0,3.0,77,0.00,,,0.00,Weather View 32 v70,2013-02-08 11:59:00,
2013-02-08 04:09:00,35.4,28.9,29.88,North,4,0.0,4.0,77,0.00,,,0.00,Weather View 32 v70,2013-02-08 12:09:00,
2013-02-08 04:19:00,35.4,29.2,29.88,North,4,3.0,4.0,78,0.00,,,0.00,Weather View 32 v70,2013-02-08 12:19:00,
2013-02-08 04:24:00,35.4,29.2,29.88,North,4,0.0,4.0,78,0.00,,,0.00,Weather View 32 v70,2013-02-08 12:24:00,
2013-02-08 04:34:00,35.4,29.2,29.88,North,4,2.0,4.0,78,0.00,,,0.00,Weather View 32 v70,2013-02-08 12:34:00,
2013-02-08 04:44:00,35.8,29.6,29.88,North,4,0.0,4.0,78,0.00,,,0.00,Weather View 32 v70,2013-02-08 12:44:00,
2013-02-08 04:49:00,35.6,29.4,29.88,North,4,0.0,4.0,78,0.00,,,0.00,Weather View 32 v70,2013-02-08 12:49:00,
2013-02-08 04:57:00,35.6,29.4,29.88,North,4,0.0,4.0,78,0.00,,,0.00,Weather View 32 v70,2013-02-08 12:57:00,
2013-02-08 05:04:00,35.2,29.1,29.88,North,4,2.0,4.0,78,0.00,,,0.00,Weather View 32 v70,2013-02-08 13:04:00,
2013-02-08 05:14:00,34.9,28.7,29.88,North,4,3.0,4.0,78,0.00,,,0.00,Weather View 32 v70,2013-02-08 13:14:00,
2013-02-08 05:19:00,34.9,28.7,29.88,North,4,3.0,4.0,78,0.00,,,0.00,Weather View 32 v70,2013-02-08 13:19:00,
2013-02-08 05:24:00,34.5,28.4,29.88,North,4,3.0,3.0,78,0.00,,,0.00,Weather View 32 v70,2013-02-08 13:24:00,
2013-02-08 05:34:00,34.2,27.7,29.88,North,4,3.0,4.0,77,0.00,,,0.00,Weather View 32 v70,2013-02-08 13:34:00,
2013-02-08 05:40:00,34.0,27.5,29.88,North,4,4.0,4.0,77,0.00,,,0.00,Weather View 32 v70,2013-02-08 13:40:00,
2013-02-08 05:49:00,33.8,27.4,29.88,North,4,3.0,4.0,77,0.00,,,0.00,Weather View 32 v70,2013-02-08 13:49:00,
2013-02-08 05:54:00,33.8,27.4,29.88,North,4,4.0,4.0,77,0.00,,,0.00,Weather View 32 v70,2013-02-08 13:54:00,
2013-02-08 05:59:00,33.6,27.5,29.88,North,4,2.0,5.0,78,0.00,,,0.00,Weather View 32 v70,2013-02-08 13:59:00,
2013-02-08 06:09:00,33.6,27.5,29.88,North,4,0.0,5.0,78,0.00,,,0.00,Weather View 32 v70,2013-02-08 14:09:00,
2013-02-08 06:14:00,33.6,27.5,29.88,North,4,0.0,5.0,78,0.00,,,0.00,Weather View 32 v70,2013-02-08 14:14:00,
2013-02-08 06:24:00,33.6,27.5,29.91,North,4,0.0,5.0,78,0.00,,,0.00,Weather View 32 v70,2013-02-08 14:24:00,
2013-02-08 06:34:00,33.4,27.3,29.91,North,4,3.0,5.0,78,0.00,,,0.00,Weather View 32 v70,2013-02-08 14:34:00,
2013-02-08 06:44:00,33.4,27.3,29.91,North,4,3.0,5.0,78,0.00,,,0.00,Weather View 32 v70,2013-02-08 14:44:00,
2013-02-08 06:49:00,33.4,27.3,29.91,North,4,3.0,5.0,78,0.00,,,0.00,Weather View 32 v70,2013-02-08 14:49:00,
2013-02-08 06:59:00,33.4,27.3,29.91,North,4,0.0,5.0,78,0.00,,,0.00,Weather View 32 v70,2013-02-08 14:59:00,
2013-02-08 07:04:00,33.3,27.1,29.91,North,4,0.0,4.0,78,0.00,,,0.00,Weather View 32 v70,2013-02-08 15:04:00,
2013-02-08 07:14:00,33.4,27.6,29.91,North,4,0.0,4.0,79,0.00,,,0.00,Weather View 32 v70,2013-02-08 15:14:00,
2013-02-08 07:19:00,33.4,27.6,29.91,North,4,2.0,4.0,79,0.00,,,0.00,Weather View 32 v70,2013-02-08 15:19:00,
2013-02-08 07:24:00,33.4,27.6,29.91,North,4,0.0,4.0,79,0.00,,,0.00,Weather View 32 v70,2013-02-08 15:24:00,
2013-02-08 07:34:00,33.6,27.8,29.91,North,4,0.0,4.0,79,0.00,,,0.00,Weather View 32 v70,2013-02-08 15:34:00,
2013-02-08 07:39:00,33.6,27.8,29.91,North,4,0.0,4.0,79,0.00,,,0.00,Weather View 32 v70,2013-02-08 15:39:00,
2013-02-08 07:44:00,33.8,28.0,29.91,North,4,0.0,4.0,79,0.00,,,0.00,Weather View 32 v70,2013-02-08 15:44:00,
2013-02-08 07:49:00,34.0,28.2,29.91,North,4,0.0,4.0,79,0.00,,,0.00,Weather View 32 v70,2013-02-08 15:49:00,
2013-02-08 07:54:00,34.2,28.3,29.91,North,4,0.0,4.0,79,0.00,,,0.00,Weather View 32 v70,2013-02-08 15:54:00,
2013-02-08 07:59:00,34.3,28.5,29.91,North,4,0.0,4.0,79,0.00,,,0.00,Weather View 32 v70,2013-02-08 15:59:00,
2013-02-08 08:09:00,34.5,28.7,29.91,North,4,0.0,4.0,79,0.00,,,0.00,Weather View 32 v70,2013-02-08 16:09:00,
2013-02-08 08:19:00,34.7,29.2,29.91,North,4,0.0,3.0,80,0.00,,,0.00,Weather View 32 v70,2013-02-08 16:19:00,
2013-02-08 08:24:00,34.9,29.3,29.91,North,4,0.0,0.0,80,0.00,,,0.00,Weather View 32 v70,2013-02-08 16:24:00,
2013-02-08 08:29:00,34.9,29.3,29.91,North,4,0.0,0.0,80,0.00,,,0.00,Weather View 32 v70,2013-02-08 16:29:00,
2013-02-08 08:39:00,34.9,29.3,29.94,North,4,0.0,0.0,80,0.00,,,0.00,Weather View 32 v70,2013-02-08 16:39:00,
2013-02-08 08:49:00,35.4,29.9,29.94,North,4,0.0,0.0,80,0.00,,,0.00,Weather View 32 v70,2013-02-08 16:49:00,
2013-02-08 09:00:00,35.6,30.0,29.94,North,4,2.0,3.0,80,0.00,,,0.00,Weather View 32 v70,2013-02-08 17:00:00,
2013-02-08 09:09:00,35.8,30.2,29.94,North,4,3.0,3.0,80,0.00,,,0.00,Weather View 32 v70,2013-02-08 17:09:00,
2013-02-08 09:14:00,36.0,30.4,29.94,North,4,0.0,3.0,80,0.00,,,0.00,Weather View 32 v70,2013-02-08 17:14:00,
2013-02-08 09:24:00,36.1,30.9,29.94,North,4,0.0,3.0,81,0.00,,,0.00,Weather View 32 v70,2013-02-08 17:24:00,
2013-02-08 09:29:00,36.3,30.7,29.94,North,4,0.0,3.0,80,0.00,,,0.00,Weather View 32 v70,2013-02-08 17:29:00,
2013-02-08 09:39:00,36.3,30.7,29.94,North,4,0.0,3.0,80,0.00,,,0.00,Weather View 32 v70,2013-02-08 17:39:00,
2013-02-08 09:44:00,36.5,30.9,29.94,North,4,0.0,3.0,80,0.00,,,0.00,Weather View 32 v70,2013-02-08 17:44:00,
2013-02-08 09:49:00,36.7,31.1,29.94,North,4,0.0,3.0,80,0.00,,,0.00,Weather View 32 v70,2013-02-08 17:49:00,
2013-02-08 09:54:00,36.7,31.1,29.94,North,4,0.0,4.0,80,0.00,,,0.00,Weather View 32 v70,2013-02-08 17:54:00,
2013-02-08 10:00:00,36.7,31.1,29.94,North,4,0.0,4.0,80,0.00,,,0.00,Weather View 32 v70,2013-02-08 18:00:00,
2013-02-08 10:09:00,36.9,31.0,29.94,North,4,0.0,4.0,79,0.00,,,0.00,Weather View 32 v70,2013-02-08 18:09:00,
2013-02-08 10:14:00,36.9,31.0,29.94,North,4,4.0,4.0,79,0.00,,,0.00,Weather View 32 v70,2013-02-08 18:14:00,
2013-02-08 10:19:00,36.9,31.0,29.94,North,4,0.0,4.0,79,0.00,,,0.00,Weather View 32 v70,2013-02-08 18:19:00,
2013-02-08 10:29:00,37.0,30.8,29.94,North,4,0.0,4.0,78,0.00,,,0.00,Weather View 32 v70,2013-02-08 18:29:00,
2013-02-08 10:39:00,37.6,31.0,29.94,North,4,0.0,4.0,77,0.00,,,0.00,Weather View 32 v70,2013-02-08 18:39:00,
2013-02-08 10:44:00,37.8,31.2,29.94,North,4,0.0,4.0,77,0.00,,,0.00,Weather View 32 v70,2013-02-08 18:44:00,
2013-02-08 10:49:00,37.8,30.9,29.94,North,4,0.0,4.0,76,0.00,,,0.00,Weather View 32 v70,2013-02-08 18:49:00,
2013-02-08 10:55:00,37.9,30.7,29.94,WNW,302,3.0,5.0,75,0.00,,,0.00,Weather View 32 v70,2013-02-08 18:55:00,
2013-02-08 11:01:00,38.1,30.2,29.94,WNW,302,0.0,5.0,73,0.00,,,0.00,Weather View 32 v70,2013-02-08 19:01:00,
2013-02-08 11:09:00,38.3,30.1,29.94,WNW,302,3.0,5.0,72,0.00,,,0.00,Weather View 32 v70,2013-02-08 19:09:00,
2013-02-08 11:14:00,38.7,30.4,29.94,WNW,302,2.0,5.0,72,0.00,,,0.00,Weather View 32 v70,2013-02-08 19:14:00,
2013-02-08 11:19:00,38.7,29.7,29.94,WNW,302,0.0,5.0,70,0.00,,,0.00,Weather View 32 v70,2013-02-08 19:19:00,
2013-02-08 11:29:00,39.2,29.5,29.94,WNW,303,3.0,5.0,68,0.00,,,0.00,Weather View 32 v70,2013-02-08 19:29:00,
2013-02-08 11:34:00,39.2,28.4,29.94,WNW,303,0.0,5.0,65,0.00,,,0.00,Weather View 32 v70,2013-02-08 19:34:00,
2013-02-08 11:40:00,39.0,27.9,29.94,WNW,303,2.0,5.0,64,0.00,,,0.00,Weather View 32 v70,2013-02-08 19:40:00,
2013-02-08 11:49:00,39.4,27.8,29.94,WNW,303,0.0,5.0,63,0.00,,,0.00,Weather View 32 v70,2013-02-08 19:49:00,
2013-02-08 11:54:00,40.1,28.5,29.94,NNE,22,3.0,5.0,63,0.00,,,0.00,Weather View 32 v70,2013-02-08 19:54:00,
2013-02-08 12:02:00,40.5,28.1,29.94,ENE,71,0.0,4.0,61,0.00,,,0.00,Weather View 32 v70,2013-02-08 20:02:00,
2013-02-08 12:09:00,40.6,26.1,29.94,ENE,71,0.0,4.0,56,0.00,,,0.00,Weather View 32 v70,2013-02-08 20:09:00,
2013-02-08 12:14:00,40.6,24.8,29.94,West,277,4.0,4.0,53,0.00,,,0.00,Weather View 32 v70,2013-02-08 20:14:00,
2013-02-08 12:24:00,41.2,21.9,29.94,WNW,283,0.0,5.0,46,0.00,,,0.00,Weather View 32 v70,2013-02-08 20:24:00,
2013-02-08 12:29:00,41.4,23.1,29.94,East,92,2.0,5.0,48,0.00,,,0.00,Weather View 32 v70,2013-02-08 20:29:00,
2013-02-08 12:34:00,41.5,23.3,29.94,WNW,290,3.0,5.0,48,0.00,,,0.00,Weather View 32 v70,2013-02-08 20:34:00,
2013-02-08 12:44:00,41.5,22.8,29.94,North,0,0.0,5.0,47,0.00,,,0.00,Weather View 32 v70,2013-02-08 20:44:00,
2013-02-08 12:54:00,41.5,22.8,29.94,North,0,3.0,5.0,47,0.00,,,0.00,Weather View 32 v70,2013-02-08 20:54:00,
2013-02-08 12:59:00,41.5,22.8,29.94,North,0,0.0,5.0,47,0.00,,,0.00,Weather View 32 v70,2013-02-08 20:59:00,
2013-02-08 13:04:00,41.5,22.3,29.94,North,0,3.0,5.0,46,0.00,,,0.00,Weather View 32 v70,2013-02-08 21:04:00,
2013-02-08 13:14:00,41.7,22.9,29.94,North,0,0.0,5.0,47,0.00,,,0.00,Weather View 32 v70,2013-02-08 21:14:00,
2013-02-08 13:20:00,41.9,23.6,29.94,North,0,0.0,5.0,48,0.00,,,0.00,Weather View 32 v70,2013-02-08 21:20:00,
2013-02-08 13:29:00,42.1,23.3,29.94,North,0,2.0,5.0,47,0.00,,,0.00,Weather View 32 v70,2013-02-08 21:29:00,
2013-02-08 13:34:00,42.1,22.8,29.94,North,0,0.0,5.0,46,0.00,,,0.00,Weather View 32 v70,2013-02-08 21:34:00,
2013-02-08 13:39:00,42.1,22.2,29.91,North,0,0.0,4.0,45,0.00,,,0.00,Weather View 32 v70,2013-02-08 21:39:00,
2013-02-08 13:49:00,42.1,22.2,29.91,North,0,0.0,4.0,45,0.00,,,0.00,Weather View 32 v70,2013-02-08 21:49:00,
2013-02-08 13:55:00,42.3,21.9,29.91,North,0,0.0,4.0,44,0.00,,,0.00,Weather View 32 v70,2013-02-08 21:55:00,
2013-02-08 14:03:00,42.3,21.9,29.91,North,0,0.0,4.0,44,0.00,,,0.00,Weather View 32 v70,2013-02-08 22:03:00,
2013-02-08 14:09:00,42.4,22.0,29.91,North,0,0.0,4.0,44,0.00,,,0.00,Weather View 32 v70,2013-02-08 22:09:00,
2013-02-08 14:19:00,42.4,21.5,29.91,North,0,0.0,4.0,43,0.00,,,0.00,Weather View 32 v70,2013-02-08 22:19:00,
2013-02-08 14:24:00,42.6,21.7,29.91,North,0,0.0,4.0,43,0.00,,,0.00,Weather View 32 v70,2013-02-08 22:24:00,
2013-02-08 14:34:00,42.8,22.4,29.91,North,0,0.0,4.0,44,0.00,,,0.00,Weather View 32 v70,2013-02-08 22:34:00,
2013-02-08 14:44:00,42.8,21.8,29.91,North,0,0.0,4.0,43,0.00,,,0.00,Weather View 32 v70,2013-02-08 22:44:00,
2013-02-08 14:54:00,42.4,22.0,29.91,North,0,0.0,4.0,44,0.00,,,0.00,Weather View 32 v70,2013-02-08 22:54:00,
2013-02-08 14:59:00,42.4,22.0,29.91,North,0,0.0,4.0,44,0.00,,,0.00,Weather View 32 v70,2013-02-08 22:59:00,
2013-02-08 15:04:00,42.4,22.6,29.91,North,0,0.0,4.0,45,0.00,,,0.00,Weather View 32 v70,2013-02-08 23:04:00,
2013-02-08 15:09:00,42.6,23.8,29.94,North,0,0.0,4.0,47,0.00,,,0.00,Weather View 32 v70,2013-02-08 23:09:00,
2013-02-08 15:19:00,42.4,23.6,29.94,North,0,0.0,3.0,47,0.00,,,0.00,Weather View 32 v70,2013-02-08 23:19:00,
2013-02-08 15:24:00,42.6,23.3,29.94,North,0,0.0,3.0,46,0.00,,,0.00,Weather View 32 v70,2013-02-08 23:24:00,
2013-02-08 15:34:00,42.8,22.9,29.94,North,0,0.0,3.0,45,0.00,,,0.00,Weather View 32 v70,2013-02-08 23:34:00,
2013-02-08 15:39:00,42.8,22.4,29.94,North,0,0.0,0.0,44,0.00,,,0.00,Weather View 32 v70,2013-02-08 23:39:00,
2013-02-08 15:44:00,42.8,21.3,29.94,North,0,3.0,4.0,42,0.00,,,0.00,Weather View 32 v70,2013-02-08 23:44:00,
2013-02-08 15:54:00,42.8,21.3,29.94,North,0,3.0,4.0,42,0.00,,,0.00,Weather View 32 v70,2013-02-08 23:54:00,
2013-02-08 15:59:00,42.8,21.3,29.94,NNW,342,5.0,5.0,42,0.00,,,0.00,Weather View 32 v70,2013-02-08 23:59:00,
2013-02-08 16:09:00,42.8,20.1,29.94,North,357,3.0,5.0,40,0.00,,,0.00,Weather View 32 v70,2013-02-09 00:09:00,
2013-02-08 16:14:00,42.6,20.5,29.94,North,357,0.0,5.0,41,0.00,,,0.00,Weather View 32 v70,2013-02-09 00:14:00,
2013-02-08 16:24:00,42.4,20.4,29.91,North,357,0.0,5.0,41,0.00,,,0.00,Weather View 32 v70,2013-02-09 00:24:00,
2013-02-08 16:30:00,42.3,20.2,29.91,North,357,0.0,5.0,41,0.00,,,0.00,Weather View 32 v70,2013-02-09 00:30:00,
2013-02-08 16:39:00,42.1,21.2,29.91,North,357,0.0,5.0,43,0.00,,,0.00,Weather View 32 v70,2013-02-09 00:39:00,
2013-02-08 16:44:00,41.9,20.4,29.91,North,357,0.0,5.0,42,0.00,,,0.00,Weather View 32 v70,2013-02-09 00:44:00,
2013-02-08 16:49:00,41.7,20.8,29.91,North,357,0.0,5.0,43,0.00,,,0.00,Weather View 32 v70,2013-02-09 00:49:00,
2013-02-08 16:59:00,41.5,21.2,29.91,North,357,0.0,5.0,44,0.00,,,0.00,Weather View 32 v70,2013-02-09 00:59:00,
2013-02-08 17:05:00,41.2,21.4,29.91,North,357,0.0,5.0,45,0.00,,,0.00,Weather View 32 v70,2013-02-09 01:05:00,
2013-02-08 17:14:00,40.6,22.0,29.91,North,357,0.0,3.0,47,0.00,,,0.00,Weather View 32 v70,2013-02-09 01:14:00,
2013-02-08 17:19:00,40.3,22.1,29.91,North,357,0.0,3.0,48,0.00,,,0.00,Weather View 32 v70,2013-02-09 01:19:00,
2013-02-08 17:29:00,39.6,22.0,29.91,North,357,0.0,3.0,49,0.00,,,0.00,Weather View 32 v70,2013-02-09 01:29:00,
2013-02-08 17:34:00,39.2,22.1,29.91,North,357,0.0,3.0,50,0.00,,,0.00,Weather View 32 v70,2013-02-09 01:34:00,
2013-02-08 17:39:00,38.8,22.2,29.91,North,357,0.0,3.0,51,0.00,,,0.00,Weather View 32 v70,2013-02-09 01:39:00,
2013-02-08 17:49:00,38.5,21.9,29.91,North,357,0.0,3.0,51,0.00,,,0.00,Weather View 32 v70,2013-02-09 01:49:00,
2013-02-08 17:59:00,38.1,22.0,29.91,North,357,0.0,0.0,52,0.00,,,0.00,Weather View 32 v70,2013-02-09 01:59:00,
2013-02-08 18:04:00,37.9,22.3,29.91,North,357,0.0,0.0,53,0.00,,,0.00,Weather View 32 v70,2013-02-09 02:04:00,
2013-02-08 18:09:00,37.9,22.3,29.91,North,357,0.0,0.0,53,0.00,,,0.00,Weather View 32 v70,2013-02-09 02:09:00,
2013-02-08 18:19:00,37.6,22.4,29.91,North,357,0.0,0.0,54,0.00,,,0.00,Weather View 32 v70,2013-02-09 02:19:00,
2013-02-08 18:24:00,37.8,23.0,29.91,North,357,0.0,0.0,55,0.00,,,0.00,Weather View 32 v70,2013-02-09 02:24:00,
2013-02-08 18:34:00,38.1,23.8,29.91,North,357,0.0,0.0,56,0.00,,,0.00,Weather View 32 v70,2013-02-09 02:34:00,
2013-02-08 18:39:00,38.5,24.1,29.91,North,357,0.0,0.0,56,0.00,,,0.00,Weather View 32 v70,2013-02-09 02:39:00,
2013-02-08 18:49:00,38.8,23.6,29.91,North,357,0.0,0.0,54,0.00,,,0.00,Weather View 32 v70,2013-02-09 02:49:00,
2013-02-08 18:59:00,38.8,23.1,29.91,North,357,0.0,0.0,53,0.00,,,0.00,Weather View 32 v70,2013-02-09 02:59:00,
2013-02-08 19:04:00,38.8,23.1,29.91,North,357,0.0,0.0,53,0.00,,,0.00,Weather View 32 v70,2013-02-09 03:04:00,
2013-02-08 19:09:00,38.8,23.6,29.91,North,357,0.0,0.0,54,0.00,,,0.00,Weather View 32 v70,2013-02-09 03:09:00,
2013-02-08 19:19:00,39.0,23.8,29.91,North,357,0.0,0.0,54,0.00,,,0.00,Weather View 32 v70,2013-02-09 03:19:00,
2013-02-08 19:24:00,39.0,23.8,29.91,North,357,0.0,0.0,54,0.00,,,0.00,Weather View 32 v70,2013-02-09 03:24:00,
2013-02-08 19:35:00,39.4,24.1,29.91,North,357,0.0,0.0,54,0.00,,,0.00,Weather View 32 v70,2013-02-09 03:35:00,
2013-02-08 19:44:00,39.4,24.1,29.91,North,357,0.0,3.0,54,0.00,,,0.00,Weather View 32 v70,2013-02-09 03:44:00,
2013-02-08 19:49:00,39.4,24.1,29.91,North,357,0.0,3.0,54,0.00,,,0.00,Weather View 32 v70,2013-02-09 03:49:00,
2013-02-08 19:54:00,39.6,24.3,29.91,North,357,0.0,3.0,54,0.00,,,0.00,Weather View 32 v70,2013-02-09 03:54:00,
2013-02-08 20:04:00,39.6,24.3,29.91,North,357,0.0,3.0,54,0.00,,,0.00,Weather View 32 v70,2013-02-09 04:04:00,
2013-02-08 20:09:00,39.7,24.9,29.91,North,357,0.0,3.0,55,0.00,,,0.00,Weather View 32 v70,2013-02-09 04:09:00,
2013-02-08 20:19:00,39.6,24.7,29.91,North,357,0.0,3.0,55,0.00,,,0.00,Weather View 32 v70,2013-02-09 04:19:00,
2013-02-08 20:24:00,39.6,24.7,29.91,North,357,0.0,3.0,55,0.00,,,0.00,Weather View 32 v70,2013-02-09 04:24:00,
2013-02-08 20:34:00,39.6,24.7,29.91,North,357,0.0,3.0,55,0.00,,,0.00,Weather View 32 v70,2013-02-09 04:34:00,
2013-02-08 20:39:00,39.4,24.5,29.91,North,357,0.0,3.0,55,0.00,,,0.00,Weather View 32 v70,2013-02-09 04:39:00,
2013-02-08 20:44:00,39.6,24.7,29.91,North,357,0.0,0.0,55,0.00,,,0.00,Weather View 32 v70,2013-02-09 04:44:00,
2013-02-08 20:49:00,39.6,24.7,29.91,North,357,0.0,0.0,55,0.00,,,0.00,Weather View 32 v70,2013-02-09 04:49:00,
2013-02-08 20:59:00,39.6,24.7,29.91,North,357,0.0,0.0,55,0.00,,,0.00,Weather View 32 v70,2013-02-09 04:59:00,
2013-02-08 21:04:00,39.6,25.1,29.91,North,357,0.0,0.0,56,0.00,,,0.00,Weather View 32 v70,2013-02-09 05:04:00,
2013-02-08 21:09:00,39.6,25.1,29.94,North,357,0.0,0.0,56,0.00,,,0.00,Weather View 32 v70,2013-02-09 05:09:00,
2013-02-08 21:14:00,39.6,25.1,29.94,North,357,0.0,0.0,56,0.00,,,0.00,Weather View 32 v70,2013-02-09 05:14:00,
2013-02-08 21:19:00,39.6,25.1,29.94,North,357,0.0,0.0,56,0.00,,,0.00,Weather View 32 v70,2013-02-09 05:19:00,
2013-02-08 21:24:00,39.7,25.3,29.94,North,357,0.0,0.0,56,0.00,,,0.00,Weather View 32 v70,2013-02-09 05:24:00,
2013-02-08 21:34:00,39.6,25.1,29.94,North,357,0.0,0.0,56,0.00,,,0.00,Weather View 32 v70,2013-02-09 05:34:00,
2013-02-08 21:44:00,39.4,25.0,29.91,North,357,0.0,0.0,56,0.00,,,0.00,Weather View 32 v70,2013-02-09 05:44:00,
2013-02-08 21:49:00,39.4,25.0,29.91,North,357,0.0,0.0,56,0.00,,,0.00,Weather View 32 v70,2013-02-09 05:49:00,
2013-02-08 21:54:00,39.6,25.1,29.94,North,357,0.0,0.0,56,0.00,,,0.00,Weather View 32 v70,2013-02-09 05:54:00,
2013-02-08 22:04:00,39.6,25.1,29.94,North,357,0.0,0.0,56,0.00,,,0.00,Weather View 32 v70,2013-02-09 06:04:00,
2013-02-08 22:09:00,39.6,25.1,29.91,North,357,0.0,0.0,56,0.00,,,0.00,Weather View 32 v70,2013-02-09 06:09:00,
2013-02-08 22:14:00,39.7,25.3,29.91,North,357,0.0,0.0,56,0.00,,,0.00,Weather View 32 v70,2013-02-09 06:14:00,
2013-02-08 22:19:00,39.7,24.9,29.91,North,357,0.0,0.0,55,0.00,,,0.00,Weather View 32 v70,2013-02-09 06:19:00,
2013-02-08 22:29:00,39.7,24.9,29.91,North,357,0.0,0.0,55,0.00,,,0.00,Weather View 32 v70,2013-02-09 06:29:00,
2013-02-08 22:34:00,39.7,25.3,29.91,North,357,0.0,0.0,56,0.00,,,0.00,Weather View 32 v70,2013-02-09 06:34:00,
2013-02-08 22:44:00,39.6,25.1,29.91,North,357,0.0,0.0,56,0.00,,,0.00,Weather View 32 v70,2013-02-09 06:44:00,
2013-02-08 22:49:00,39.4,25.0,29.91,North,357,0.0,0.0,56,0.00,,,0.00,Weather View 32 v70,2013-02-09 06:49:00,
2013-02-08 22:59:00,39.6,25.1,29.91,North,357,0.0,0.0,56,0.00,,,0.00,Weather View 32 v70,2013-02-09 06:59:00,
2013-02-08 23:09:00,39.6,25.1,29.91,North,357,0.0,0.0,56,0.00,,,0.00,Weather View 32 v70,2013-02-09 07:09:00,
2013-02-08 23:14:00,39.6,25.6,29.91,North,357,0.0,0.0,57,0.00,,,0.00,Weather View 32 v70,2013-02-09 07:14:00,
2013-02-08 23:19:00,39.4,25.4,29.91,North,357,0.0,0.0,57,0.00,,,0.00,Weather View 32 v70,2013-02-09 07:19:00,
2013-02-08 23:24:00,39.4,25.4,29.91,North,357,0.0,0.0,57,0.00,,,0.00,Weather View 32 v70,2013-02-09 07:24:00,
2013-02-08 23:34:00,39.4,25.8,29.91,North,357,0.0,0.0,58,0.00,,,0.00,Weather View 32 v70,2013-02-09 07:34:00,
2013-02-08 23:39:00,39.2,25.6,29.91,North,357,0.0,0.0,58,0.00,,,0.00,Weather View 32 v70,2013-02-09 07:39:00,
2013-02-08 23:49:00,39.4,26.2,29.91,North,357,0.0,0.0,59,0.00,,,0.00,Weather View 32 v70,2013-02-09 07:49:00,
2013-02-08 23:54:00,39.4,26.2,29.91,North,357,0.0,0.0,59,0.00,,,0.00,Weather View 32 v70,2013-02-09 07:54:00,